YMML/MEL METAR and TAF weather

Enter ICAO airport designator
Station Type Date Time Source
YMML METAR 2020/04/04 11:00 UTC NOAA

YMML 041100Z 31010KT CAVOK 08/04 Q1007 FM1100 MOD TURB BLW 5000FT


Station Type Date Time Source
YMML Decoded METAR 2020/04/04 11:00 UTC NOAA

Melbourne Airport, Australia (YMML) 37-40S 144-50E 141M
Apr 04, 2020 - 07:00 AM EDT / 2020.04.04 1100 UTC
Wind: from the NW (310 degrees) at 12 MPH (10 KT):0
Visibility: greater than 7 mile(s):0
Temperature: 46 F (8 C)
Dew Point: 39 F (4 C)
Relative Humidity: 75%
Pressure (altimeter): 29.74 in. Hg (1007 hPa)
ob: YMML 041100Z 31010KT CAVOK 08/04 Q1007 FM1100 MOD TURB BLW 5000FT
cycle: 11

Station Type Date Time Source
YMML TAF 2020/04/04 06:50 UTC NOAA

TAF
AMD YMML 040445Z 0406/0512 26018G28KT 9999 -SHRA SCT035
BECMG 0408/0410 31014KT 9999 NSW SCT040
FM041400 35015KT CAVOK
BECMG 0418/0420 33020G30KT 9999 BKN030
BECMG 0502/0504 27015G25KT 9999 -SHRA SCT020 BKN030 INTER 0406/0409 27030G40KT 4000 SHRA BKN020 INTER 0501/0512 4000 SHRA BKN015

Example: see airport list